Time;durP1;ratioP1;P1;durP2;ratioP2;P2;SDS_P1;SDS_P2;PMS_P1;PMS_P2;Temp;Humidity;BMP_temperature;BMP_pressure;BME280_temperature;BME280_humidity;BME280_pressure;Samples;Min_cycle;Max_cycle;Signal;HPM_P1;HPM_P2
2022/06/02 00:00:19;;;;;;;3.85;2.30;;;12.40;99.90;;;;;;5075924;27;39095;-75
2022/06/02 00:03:03;;;;;;;4.63;2.67;;;12.40;99.90;;;;;;5061800;27;38774;-74
2022/06/02 00:05:50;;;;;;;3.85;2.53;;;12.30;99.90;;;;;;5067027;28;49156;-75
2022/06/02 00:08:47;;;;;;;6.57;3.65;;;12.30;99.90;;;;;;5058947;28;37511;-75
2022/06/02 00:11:16;;;;;;;3.45;2.97;;;12.30;99.90;;;;;;5076618;27;39580;-75
2022/06/02 00:14:03;;;;;;;3.28;2.70;;;12.30;99.90;;;;;;5064774;27;38515;-75
2022/06/02 00:17:26;;;;;;;5.22;2.70;;;12.20;99.90;;;;;;5072034;28;47279;-74
2022/06/02 00:20:18;;;;;;;3.17;2.42;;;12.10;99.90;;;;;;4987633;28;47522;-75
2022/06/02 00:23:21;;;;;;;3.78;2.65;;;12.00;99.90;;;;;;5013528;28;48678;-75
2022/06/02 00:26:43;;;;;;;3.28;2.78;;;11.90;99.90;;;;;;5068741;27;48783;-75
2022/06/02 00:29:13;;;;;;;3.50;2.88;;;11.90;99.90;;;;;;5016954;27;47322;-74
2022/06/02 00:31:59;;;;;;;3.60;3.20;;;11.80;99.90;;;;;;5061482;27;36907;-74
2022/06/02 00:34:32;;;;;;;5.85;3.00;;;11.80;99.90;;;;;;5068317;28;40889;-75
2022/06/02 00:37:25;;;;;;;3.20;2.90;;;11.80;99.90;;;;;;5054407;28;38927;-75
2022/06/02 00:39:53;;;;;;;4.15;3.10;;;11.70;99.90;;;;;;5080299;27;46958;-74
2022/06/02 00:42:40;;;;;;;4.97;3.55;;;11.60;99.90;;;;;;5078171;27;36931;-74
2022/06/02 00:45:13;;;;;;;4.65;3.22;;;11.60;99.90;;;;;;5075249;27;39187;-75
2022/06/02 00:47:50;;;;;;;3.85;3.40;;;11.50;99.90;;;;;;5082458;28;39693;-75
2022/06/02 00:50:52;;;;;;;4.82;3.35;;;11.50;99.90;;;;;;5073814;27;38718;-75
2022/06/02 00:53:41;;;;;;;3.80;3.50;;;11.40;99.90;;;;;;5076620;27;38791;-74
2022/06/02 00:59:21;;;;;;;3.40;3.20;;;11.30;99.90;;;;;;5072676;27;39847;-74
2022/06/02 01:01:47;;;;;;;4.72;3.13;;;11.20;99.90;;;;;;5075405;27;39747;-75
2022/06/02 01:04:18;;;;;;;4.93;3.47;;;11.20;99.90;;;;;;5067163;27;37194;-75
2022/06/02 01:06:56;;;;;;;4.47;4.05;;;11.10;99.90;;;;;;5078910;27;38863;-75
2022/06/02 01:09:50;;;;;;;5.68;4.32;;;11.10;99.90;;;;;;5090716;27;38166;-76
2022/06/02 01:12:34;;;;;;;4.20;3.30;;;11.00;99.90;;;;;;5075191;28;39371;-76
2022/06/02 01:15:34;;;;;;;3.92;3.60;;;10.90;99.90;;;;;;5059918;28;37714;-76
2022/06/02 01:18:20;;;;;;;4.45;4.05;;;10.80;99.90;;;;;;5076973;27;48819;-76
2022/06/02 01:21:07;;;;;;;5.60;4.30;;;10.80;99.90;;;;;;5064879;27;47375;-75
2022/06/02 01:24:06;;;;;;;6.55;4.70;;;10.70;99.90;;;;;;5062311;27;49346;-76
2022/06/02 01:26:48;;;;;;;4.65;4.18;;;10.70;99.90;;;;;;5069040;27;47086;-75
2022/06/02 01:29:37;;;;;;;5.43;4.38;;;10.70;99.90;;;;;;5079838;27;38626;-76
2022/06/02 01:32:33;;;;;;;5.78;4.20;;;10.60;99.90;;;;;;5081105;27;39344;-76
2022/06/02 01:35:19;;;;;;;6.90;4.75;;;10.60;99.90;;;;;;5076557;28;37773;-75
2022/06/02 01:38:00;;;;;;;6.15;4.97;;;10.60;99.90;;;;;;5078141;27;46886;-75
2022/06/02 01:40:33;;;;;;;5.07;4.57;;;10.50;99.90;;;;;;5057472;27;39654;-76
2022/06/02 01:43:06;;;;;;;5.25;4.80;;;10.50;99.90;;;;;;5056099;27;38314;-75
2022/06/02 01:45:47;;;;;;;6.28;5.05;;;10.50;99.90;;;;;;5059231;27;48026;-75
2022/06/02 01:48:39;;;;;;;4.80;4.40;;;10.40;99.90;;;;;;5072548;27;38092;-75
2022/06/02 01:51:05;;;;;;;6.43;4.43;;;10.40;99.90;;;;;;5056213;28;39491;-76
2022/06/02 01:53:54;;;;;;;6.45;5.10;;;10.40;99.90;;;;;;5081791;27;38319;-75
2022/06/02 01:56:58;;;;;;;5.18;4.70;;;10.40;99.90;;;;;;5079571;27;38296;-76
2022/06/02 01:59:39;;;;;;;4.97;4.50;;;10.40;99.90;;;;;;5078113;27;38752;-76
2022/06/02 02:02:40;;;;;;;8.98;5.63;;;10.30;99.90;;;;;;5076355;27;40835;-76
2022/06/02 02:05:33;;;;;;;9.07;5.60;;;10.30;99.90;;;;;;5076923;27;38642;-75
2022/06/02 02:08:08;;;;;;;6.35;5.75;;;10.30;99.90;;;;;;5043319;27;39556;-75
2022/06/02 02:11:04;;;;;;;5.82;5.03;;;10.20;99.90;;;;;;5077195;28;47208;-75
2022/06/02 02:14:06;;;;;;;8.30;5.60;;;10.20;99.90;;;;;;5085550;27;48143;-76
2022/06/02 02:16:59;;;;;;;9.00;5.65;;;10.20;99.90;;;;;;5050490;27;48397;-75
2022/06/02 02:19:28;;;;;;;5.68;5.18;;;10.20;99.90;;;;;;5069474;27;37769;-77
2022/06/02 02:22:24;;;;;;;6.35;5.68;;;10.10;99.90;;;;;;5095399;27;38270;-76
2022/06/02 02:25:17;;;;;;;5.35;4.85;;;10.10;99.90;;;;;;5049571;28;46986;-75
2022/06/02 02:28:03;;;;;;;6.35;5.28;;;10.10;99.90;;;;;;5054625;28;47102;-75
2022/06/02 02:30:44;;;;;;;5.75;5.18;;;10.00;99.90;;;;;;5052425;28;47424;-76
2022/06/02 02:33:19;;;;;;;5.78;4.90;;;10.00;99.90;;;;;;5059019;27;35272;-76
2022/06/02 02:36:22;;;;;;;6.80;6.00;;;9.90;99.90;;;;;;5059168;27;39047;-75
2022/06/02 02:38:54;;;;;;;;;;;9.90;99.90;;;;;;5055869;27;47912;-75
2022/06/02 02:41:34;;;;;;;5.70;5.20;;;9.80;99.90;;;;;;5054945;27;36092;-75
2022/06/02 02:44:23;;;;;;;6.18;5.45;;;9.80;99.90;;;;;;5057006;28;36215;-75
2022/06/02 02:47:06;;;;;;;7.20;6.03;;;9.80;99.90;;;;;;5078610;27;48381;-76
2022/06/02 02:49:42;;;;;;;7.80;6.68;;;9.80;99.90;;;;;;5073962;28;47438;-76
2022/06/02 02:52:14;;;;;;;7.38;6.20;;;9.80;99.90;;;;;;5077240;27;38834;-76
2022/06/02 02:54:49;;;;;;;6.72;6.03;;;9.80;99.90;;;;;;5096060;27;38557;-76
2022/06/02 02:57:28;;;;;;;6.68;5.90;;;9.80;99.90;;;;;;5082954;27;40896;-76
2022/06/02 03:00:28;;;;;;;6.78;6.15;;;9.70;99.90;;;;;;5069285;28;39701;-76
2022/06/02 03:03:24;;;;;;;7.88;6.35;;;9.70;99.90;;;;;;5069388;27;48949;-76
2022/06/02 03:06:20;;;;;;;7.82;6.57;;;9.70;99.90;;;;;;5092425;27;47483;-76
2022/06/02 03:08:46;;;;;;;9.10;6.05;;;9.60;99.90;;;;;;5064734;28;47334;-76
2022/06/02 03:11:21;;;;;;;5.88;5.18;;;9.60;99.90;;;;;;5076769;27;39307;-76
2022/06/02 03:14:08;;;;;;;7.35;6.53;;;9.60;99.90;;;;;;5062329;27;37385;-76
2022/06/02 03:16:38;;;;;;;6.32;5.72;;;9.60;99.90;;;;;;5066689;28;47610;-76
2022/06/02 03:19:43;;;;;;;8.43;6.85;;;9.60;99.90;;;;;;5076261;27;39649;-75
2022/06/02 03:22:29;;;;;;;10.50;7.47;;;9.50;99.90;;;;;;5075280;27;39177;-76
2022/06/02 03:25:09;;;;;;;8.82;7.05;;;9.50;99.90;;;;;;5076064;27;38356;-76
2022/06/02 03:27:58;;;;;;;7.65;6.82;;;9.50;99.90;;;;;;5075786;28;47192;-76
2022/06/02 03:30:34;;;;;;;7.63;6.93;;;9.50;99.90;;;;;;5090791;27;39370;-76
2022/06/02 03:33:34;;;;;;;8.60;7.22;;;9.50;99.90;;;;;;5059574;27;38090;-76
2022/06/02 03:36:28;;;;;;;8.55;6.82;;;9.50;99.90;;;;;;5088489;27;48070;-76
2022/06/02 03:39:05;;;;;;;9.82;7.53;;;9.50;99.90;;;;;;5054486;27;48818;-76
2022/06/02 03:42:01;;;;;;;9.13;6.38;;;9.50;99.90;;;;;;5060178;28;48258;-75
2022/06/02 03:44:51;;;;;;;7.03;6.32;;;9.50;99.90;;;;;;5077197;28;48224;-76
2022/06/02 03:47:53;;;;;;;7.97;7.18;;;9.40;99.90;;;;;;5068325;28;37649;-76
2022/06/02 03:50:42;;;;;;;7.88;5.88;;;9.40;99.90;;;;;;5057261;27;39570;-77
2022/06/02 03:53:18;;;;;;;9.18;7.80;;;9.40;99.90;;;;;;5054184;28;38455;-76
2022/06/02 03:56:27;;;;;;;8.77;7.88;;;9.30;99.90;;;;;;5063636;28;38670;-76
2022/06/02 03:58:59;;;;;;;12.27;9.52;;;9.40;99.90;;;;;;5075249;28;47201;-77
2022/06/02 04:01:30;;;;;;;10.48;9.38;;;9.40;99.90;;;;;;5091606;27;36362;-77
2022/06/02 04:04:06;;;;;;;10.40;9.27;;;9.40;99.90;;;;;;5077268;27;39231;-77
2022/06/02 04:06:42;;;;;;;9.07;8.18;;;9.50;99.90;;;;;;5076881;27;48618;-76
2022/06/02 04:09:36;;;;;;;9.47;8.57;;;9.50;99.90;;;;;;5067644;27;38415;-76
2022/06/02 04:15:09;;;;;;;9.88;8.25;;;9.60;99.90;;;;;;5070872;27;40276;-77
2022/06/02 04:17:59;;;;;;;10.05;9.07;;;9.60;99.90;;;;;;5062057;28;39247;-77
2022/06/02 04:20:50;;;;;;;9.98;8.90;;;9.70;99.90;;;;;;5080981;28;39406;-76
2022/06/02 04:23:35;;;;;;;12.98;9.65;;;9.70;99.90;;;;;;5056705;28;38254;-76
2022/06/02 04:26:13;;;;;;;10.20;9.15;;;9.70;99.90;;;;;;5060569;28;40895;-77
2022/06/02 04:28:42;;;;;;;9.93;8.70;;;9.80;99.90;;;;;;5073201;27;47372;-77
2022/06/02 04:31:35;;;;;;;10.38;9.30;;;9.80;99.90;;;;;;5073469;27;37816;-77
2022/06/02 04:34:19;;;;;;;10.23;9.27;;;9.90;99.90;;;;;;5078183;27;37753;-77
2022/06/02 04:37:02;;;;;;;10.50;9.50;;;10.00;99.90;;;;;;5094903;27;37897;-77
2022/06/02 04:39:33;;;;;;;10.77;9.77;;;10.00;99.90;;;;;;5075963;27;20479;-78
2022/06/02 04:42:05;;;;;;;12.40;11.10;;;10.20;99.90;;;;;;5076422;28;40945;-76
2022/06/02 04:45:13;;;;;;;16.63;11.68;;;10.20;99.90;;;;;;5073801;27;48711;-77
2022/06/02 04:48:02;;;;;;;12.60;11.27;;;10.30;99.90;;;;;;5069909;27;48618;-77
2022/06/02 04:50:53;;;;;;;13.35;11.98;;;10.40;99.90;;;;;;5075552;27;48946;-76
2022/06/02 04:53:28;;;;;;;14.60;12.00;;;10.40;99.90;;;;;;5082561;27;38554;-76
2022/06/02 04:56:24;;;;;;;12.68;11.48;;;10.50;99.90;;;;;;5078862;28;40512;-76
2022/06/02 04:59:00;;;;;;;14.10;12.70;;;10.60;99.90;;;;;;5076164;27;49112;-77
2022/06/02 05:01:37;;;;;;;13.50;11.27;;;10.70;99.90;;;;;;5077517;28;40135;-77
2022/06/02 05:04:29;;;;;;;11.45;10.38;;;10.90;99.90;;;;;;5072124;27;39261;-75
2022/06/02 05:07:32;;;;;;;12.27;11.13;;;11.20;99.90;;;;;;5071200;28;39788;-75
2022/06/02 05:10:22;;;;;;;12.30;10.50;;;11.80;99.90;;;;;;5068130;28;48634;-74
2022/06/02 05:13:11;;;;;;;12.23;11.02;;;12.30;99.90;;;;;;5065437;28;47352;-75
2022/06/02 05:16:05;;;;;;;10.73;9.57;;;12.80;99.90;;;;;;5075886;28;47523;-75
2022/06/02 05:19:25;;;;;;;11.20;10.10;;;13.30;99.90;;;;;;5067911;27;45971;-78
2022/06/02 05:22:19;;;;;;;11.57;9.93;;;13.70;99.90;;;;;;5032599;28;47386;-78
2022/06/02 05:25:14;;;;;;;8.98;7.88;;;14.10;99.90;;;;;;5097148;27;47044;-78
2022/06/02 05:28:05;;;;;;;10.65;9.52;;;14.20;99.90;;;;;;5079191;27;46945;-77
2022/06/02 05:30:56;;;;;;;11.45;8.20;;;14.50;99.90;;;;;;5101532;27;47313;-78
2022/06/02 05:33:51;;;;;;;10.35;7.85;;;14.70;99.90;;;;;;5090217;27;41569;-78
2022/06/02 05:36:28;;;;;;;8.60;7.63;;;14.90;99.90;;;;;;5091112;27;40178;-77
2022/06/02 05:38:57;;;;;;;8.07;6.78;;;15.10;99.90;;;;;;5114176;27;37286;-78
2022/06/02 05:41:40;;;;;;;8.20;7.40;;;15.40;99.90;;;;;;5075766;27;37676;-78
2022/06/02 05:44:13;;;;;;;7.88;6.38;;;15.60;99.90;;;;;;5073881;27;37519;-78
2022/06/02 05:47:03;;;;;;;7.47;5.85;;;15.40;99.90;;;;;;5074716;27;38459;-78
2022/06/02 05:49:38;;;;;;;8.30;5.97;;;15.60;99.90;;;;;;5106294;27;48015;-78
2022/06/02 05:52:35;;;;;;;6.25;5.53;;;15.90;99.90;;;;;;5062545;27;39029;-77
2022/06/02 05:55:30;;;;;;;8.60;6.72;;;15.90;99.90;;;;;;5014433;28;41752;-77
2022/06/02 05:57:59;;;;;;;7.82;5.50;;;16.30;99.90;;;;;;5050226;27;47062;-77
2022/06/02 06:00:42;;;;;;;5.50;5.00;;;16.20;99.90;;;;;;5062146;27;38643;-78
2022/06/02 06:03:28;;;;;;;;;;;15.90;99.90;;;;;;5065539;27;40031;-77
2022/06/02 06:06:03;;;;;;;6.97;4.90;;;15.60;99.90;;;;;;5071559;28;40647;-77
2022/06/02 06:09:01;;;;;;;7.32;5.57;;;15.40;99.90;;;;;;5055045;27;47569;-77
2022/06/02 06:11:43;;;;;;;3.40;3.10;;;15.60;99.90;;;;;;5051462;27;48492;-77
2022/06/02 06:14:14;;;;;;;1.65;1.55;;;15.80;99.90;;;;;;5065511;27;37348;-77
2022/06/02 06:17:09;;;;;;;2.55;1.38;;;16.10;99.90;;;;;;5058241;27;38989;-77
2022/06/02 06:20:03;;;;;;;2.47;1.73;;;16.10;99.90;;;;;;5061558;27;47513;-77
2022/06/02 06:22:52;;;;;;;2.33;1.70;;;15.90;99.90;;;;;;5056253;28;48679;-77
2022/06/02 06:25:32;;;;;;;2.67;2.17;;;15.90;99.90;;;;;;5045282;28;38098;-77
2022/06/02 06:28:14;;;;;;;5.82;2.33;;;15.90;99.90;;;;;;5052809;28;40566;-77
2022/06/02 06:31:16;;;;;;;2.10;1.90;;;15.80;99.90;;;;;;5061423;28;48722;-77
2022/06/02 06:34:07;;;;;;;8.27;2.65;;;16.10;99.90;;;;;;5058208;27;47246;-77
2022/06/02 06:37:03;;;;;;;2.85;2.10;;;16.50;99.90;;;;;;5084802;27;45748;-77
2022/06/02 06:39:53;;;;;;;3.50;2.17;;;16.70;99.90;;;;;;5069518;27;50340;-76
2022/06/02 06:42:24;;;;;;;3.42;2.47;;;17.20;99.90;;;;;;5069478;27;37295;-74
2022/06/02 06:45:06;;;;;;;3.08;2.15;;;17.20;99.90;;;;;;5053130;27;37793;-76
2022/06/02 06:47:44;;;;;;;4.90;2.50;;;17.00;99.90;;;;;;5071671;27;47541;-75
2022/06/02 06:50:25;;;;;;;3.63;2.22;;;17.00;99.90;;;;;;5088639;27;40653;-76
2022/06/02 06:53:20;;;;;;;6.22;2.67;;;16.80;99.90;;;;;;5065094;27;39157;-77
2022/06/02 06:55:50;;;;;;;4.35;2.10;;;16.90;99.90;;;;;;5042339;27;49101;-78
2022/06/02 06:58:22;;;;;;;8.43;3.13;;;17.00;99.90;;;;;;5088209;27;36419;-77
2022/06/02 07:01:04;;;;;;;9.25;3.72;;;17.40;99.90;;;;;;5072278;27;37635;-77
2022/06/02 07:03:39;;;;;;;;;;;17.70;99.90;;;;;;5062348;28;47414;-76
2022/06/02 07:06:37;;;;;;;2.22;1.50;;;18.00;99.90;;;;;;5066432;27;38389;-76
2022/06/02 07:09:27;;;;;;;3.88;1.50;;;18.20;99.90;;;;;;5080885;27;37435;-76
2022/06/02 07:14:57;;;;;;;4.20;2.13;;;18.60;99.90;;;;;;5061736;27;49550;-75
2022/06/02 07:17:52;;;;;;;5.90;2.30;;;18.70;99.90;;;;;;5073771;27;38161;-76
2022/06/02 07:20:26;;;;;;;3.42;1.60;;;18.50;99.90;;;;;;5056106;27;38356;-75
2022/06/02 07:23:20;;;;;;;2.97;1.63;;;18.70;99.90;;;;;;5089091;27;39804;-76
2022/06/02 07:26:01;;;;;;;3.65;1.65;;;18.80;99.90;;;;;;5083066;27;47498;-76
2022/06/02 07:28:57;;;;;;;2.58;1.80;;;18.60;99.90;;;;;;5068876;28;47440;-76
2022/06/02 07:31:38;;;;;;;1.67;1.25;;;18.50;99.90;;;;;;5062892;28;37646;-76
2022/06/02 07:34:23;;;;;;;3.85;1.63;;;18.70;99.90;;;;;;5074984;27;39451;-75
2022/06/02 07:37:20;;;;;;;2.78;1.63;;;18.20;99.90;;;;;;5075283;27;38172;-75
2022/06/02 07:40:24;;;;;;;4.10;2.30;;;17.70;99.90;;;;;;5071748;28;49084;-76
2022/06/02 07:43:01;;;;;;;2.97;2.47;;;17.40;99.90;;;;;;5066670;27;49086;-76
2022/06/02 07:45:50;;;;;;;2.53;1.90;;;16.70;99.90;;;;;;5055357;28;46870;-75
2022/06/02 07:49:00;;;;;;;3.83;2.42;;;16.10;99.90;;;;;;5069397;27;38430;-78
2022/06/02 07:51:32;;;;;;;3.65;2.58;;;16.20;99.90;;;;;;5072625;27;38435;-78
2022/06/02 07:54:15;;;;;;;3.15;2.50;;;16.20;99.90;;;;;;5074476;27;38407;-77
2022/06/02 07:56:51;;;;;;;4.55;2.28;;;16.30;99.90;;;;;;5071488;28;48225;-78
2022/06/02 07:59:32;;;;;;;4.13;2.25;;;16.80;99.90;;;;;;5064747;27;40122;-75
2022/06/02 08:02:29;;;;;;;3.83;2.10;;;17.50;99.90;;;;;;5067288;28;36657;-75
2022/06/02 08:05:14;;;;;;;5.30;2.30;;;18.40;99.90;;;;;;5069201;27;48709;-75
2022/06/02 08:07:54;;;;;;;3.15;2.20;;;18.40;99.90;;;;;;5074564;27;48966;-76
2022/06/02 08:10:39;;;;;;;2.35;2.15;;;18.70;99.90;;;;;;5075130;27;39960;-76
2022/06/02 08:13:30;;;;;;;2.83;2.10;;;18.10;99.90;;;;;;5070391;27;38627;-75
2022/06/02 08:16:10;;;;;;;2.80;2.20;;;17.40;99.90;;;;;;5072559;28;37852;-78
2022/06/02 08:19:00;;;;;;;4.40;2.00;;;16.60;99.90;;;;;;5067534;27;47370;-75
2022/06/02 08:21:50;;;;;;;3.47;2.22;;;16.80;99.90;;;;;;5070266;27;38521;-75
2022/06/02 08:24:22;;;;;;;4.57;2.00;;;17.40;99.90;;;;;;5061862;28;36636;-77
2022/06/02 08:27:03;;;;;;;3.90;2.10;;;17.60;99.90;;;;;;5077677;27;36404;-76
2022/06/02 08:29:36;;;;;;;3.20;2.17;;;17.90;99.90;;;;;;5069274;28;46423;-76
2022/06/02 08:32:25;;;;;;;4.55;2.60;;;17.70;99.90;;;;;;5074826;27;38187;-77
2022/06/02 08:35:23;;;;;;;2.33;2.10;;;17.00;99.90;;;;;;5076266;27;38656;-76
2022/06/02 08:38:07;;;;;;;5.28;2.10;;;16.70;99.90;;;;;;5067280;28;47223;-76
2022/06/02 08:41:28;;;;;;;3.95;2.35;;;16.50;99.90;;;;;;5070559;27;47413;-75
2022/06/02 08:44:34;;;;;;;2.22;2.03;;;16.80;99.90;;;;;;5074850;27;48954;-76
2022/06/02 08:47:19;;;;;;;3.45;2.20;;;18.10;99.90;;;;;;5053285;28;46529;-75
2022/06/02 08:50:24;;;;;;;2.58;1.85;;;18.60;99.90;;;;;;5056926;28;47539;-75
2022/06/02 08:53:21;;;;;;;4.38;2.00;;;18.50;99.90;;;;;;5067378;28;47132;-73
2022/06/02 08:55:59;;;;;;;3.30;2.15;;;18.40;99.90;;;;;;5063881;28;48328;-76
2022/06/02 08:59:03;;;;;;;2.65;1.98;;;18.30;99.90;;;;;;5058818;27;37711;-76
2022/06/02 09:01:58;;;;;;;3.35;2.03;;;17.80;99.90;;;;;;5050387;28;38202;-75
2022/06/02 09:04:43;;;;;;;2.92;2.00;;;16.80;99.90;;;;;;5053472;27;38780;-77
2022/06/02 09:07:44;;;;;;;4.03;1.90;;;16.40;99.90;;;;;;5045341;27;41233;-75
2022/06/02 09:10:22;;;;;;;4.13;1.63;;;16.50;99.90;;;;;;5048042;27;36626;-76
2022/06/02 09:12:50;;;;;;;2.92;2.00;;;16.60;99.90;;;;;;5054285;27;37100;-78
2022/06/02 09:15:59;;;;;;;1.65;1.52;;;16.60;99.90;;;;;;5052362;27;37991;-78
2022/06/02 09:18:50;;;;;;;3.10;1.70;;;17.30;99.90;;;;;;5051656;28;37824;-75
2022/06/02 09:21:25;;;;;;;3.03;1.83;;;18.50;99.90;;;;;;5053709;28;38513;-75
2022/06/02 09:24:26;;;;;;;3.35;2.10;;;19.00;99.90;;;;;;5058847;28;36709;-75
2022/06/02 09:27:01;;;;;;;2.63;1.50;;;17.90;99.90;;;;;;5055697;28;47174;-76
2022/06/02 09:29:35;;;;;;;2.90;1.75;;;17.60;99.90;;;;;;5056960;27;47347;-75
2022/06/02 09:32:03;;;;;;;3.25;2.13;;;17.50;99.90;;;;;;5055501;28;37143;-75
2022/06/02 09:34:50;;;;;;;2.58;1.40;;;17.20;99.90;;;;;;5053904;27;49865;-75
2022/06/02 09:37:37;;;;;;;1.95;1.75;;;17.40;99.90;;;;;;5055182;27;39901;-75
2022/06/02 09:40:12;;;;;;;2.63;1.90;;;17.80;99.90;;;;;;5057239;27;38134;-75
2022/06/02 09:43:07;;;;;;;2.47;1.92;;;17.90;99.90;;;;;;5057659;28;47240;-75
2022/06/02 09:46:18;;;;;;;2.15;1.80;;;17.90;99.90;;;;;;5053698;27;47837;-75
2022/06/02 09:49:11;;;;;;;2.22;1.70;;;17.90;99.90;;;;;;5050142;28;47249;-75
2022/06/02 09:51:53;;;;;;;4.53;1.70;;;17.80;99.90;;;;;;5055516;28;47636;-75
2022/06/02 09:55:00;;;;;;;2.28;1.60;;;17.70;99.90;;;;;;5053305;28;36759;-76
2022/06/02 09:57:57;;;;;;;2.45;1.65;;;17.90;99.90;;;;;;5053369;27;36890;-75
2022/06/02 10:00:39;;;;;;;3.13;1.63;;;18.10;99.90;;;;;;5049933;27;38717;-75
2022/06/02 10:03:35;;;;;;;1.88;1.50;;;18.30;99.90;;;;;;5049885;27;37653;-75
2022/06/02 10:06:10;;;;;;;1.40;1.30;;;18.30;99.90;;;;;;5056347;27;36278;-74
2022/06/02 10:08:58;;;;;;;5.10;1.75;;;18.40;99.90;;;;;;5053456;28;38115;-74
2022/06/02 10:15:20;;;;;;;2.25;1.60;;;18.30;99.90;;;;;;5056185;27;49674;-75
2022/06/02 10:18:00;;;;;;;1.77;1.60;;;18.10;99.90;;;;;;5046285;28;47344;-75
2022/06/02 10:20:48;;;;;;;2.33;1.60;;;18.30;99.90;;;;;;5050322;28;37918;-75
2022/06/02 10:23:22;;;;;;;2.65;2.00;;;18.30;99.90;;;;;;5055635;28;39862;-75
2022/06/02 10:26:25;;;;;;;2.65;2.10;;;18.20;99.90;;;;;;5055881;28;39182;-75
2022/06/02 10:29:09;;;;;;;8.35;2.17;;;18.00;99.90;;;;;;5064252;28;47478;-75
2022/06/02 10:32:02;;;;;;;3.55;2.10;;;18.20;99.90;;;;;;5060547;27;48646;-75
2022/06/02 10:34:54;;;;;;;3.67;2.22;;;18.90;99.90;;;;;;5074123;27;48705;-76
2022/06/02 10:38:06;;;;;;;3.97;2.15;;;19.60;99.90;;;;;;5062709;27;38574;-75
2022/06/02 10:40:48;;;;;;;2.10;1.90;;;20.40;99.90;;;;;;5075113;28;48112;-75
2022/06/02 10:43:33;;;;;;;1.92;1.83;;;20.70;99.90;;;;;;5073491;27;37231;-75
2022/06/02 10:46:16;;;;;;;3.85;2.38;;;20.70;99.90;;;;;;5072543;28;38089;-76
2022/06/02 10:49:19;;;;;;;2.40;1.80;;;20.50;99.90;;;;;;5053600;27;48743;-76
2022/06/02 10:51:54;;;;;;;3.17;1.65;;;19.90;99.90;;;;;;5056997;27;48223;-76
2022/06/02 10:54:37;;;;;;;3.30;2.00;;;20.40;99.90;;;;;;5080638;27;36381;-76
2022/06/02 10:57:29;;;;;;;2.97;2.42;;;20.60;99.90;;;;;;5072489;27;38911;-75
2022/06/02 11:00:17;;;;;;;5.43;2.47;;;20.80;99.90;;;;;;5077011;27;38469;-75
2022/06/02 11:03:02;;;;;;;2.40;1.92;;;20.20;99.90;;;;;;5061264;27;49002;-76
2022/06/02 11:05:59;;;;;;;2.75;2.00;;;19.80;99.90;;;;;;5074000;27;48904;-75
2022/06/02 11:08:55;;;;;;;2.88;2.03;;;20.20;99.90;;;;;;5064561;27;39315;-75
2022/06/02 11:11:36;;;;;;;2.22;1.50;;;20.00;99.90;;;;;;5091399;27;38750;-75
2022/06/02 11:14:26;;;;;;;2.50;1.60;;;20.70;99.90;;;;;;5070789;27;39079;-75
2022/06/02 11:17:12;;;;;;;4.68;2.35;;;21.50;99.90;;;;;;5070186;27;37234;-75
2022/06/02 11:19:41;;;;;;;2.35;1.85;;;21.30;99.90;;;;;;5067739;28;49101;-76
2022/06/02 11:22:30;;;;;;;4.32;2.13;;;21.40;99.90;;;;;;5047040;28;38636;-77
2022/06/02 11:25:15;;;;;;;3.70;2.10;;;21.50;99.90;;;;;;5062356;28;38211;-81
2022/06/02 11:28:02;;;;;;;3.47;2.10;;;20.90;99.90;;;;;;5071573;27;48453;-80
2022/06/02 11:31:06;;;;;;;2.20;2.00;;;20.40;99.90;;;;;;5071118;27;48730;-78
2022/06/02 11:33:32;;;;;;;3.95;2.15;;;20.30;99.90;;;;;;5051592;27;47291;-79
2022/06/02 11:36:29;;;;;;;2.30;2.10;;;20.70;99.90;;;;;;5058134;28;36490;-79
2022/06/02 11:39:20;;;;;;;3.63;2.10;;;21.30;99.90;;;;;;5058279;27;49974;-79
2022/06/02 11:42:31;;;;;;;2.50;2.30;;;21.30;99.90;;;;;;5074204;27;48437;-79
2022/06/02 11:45:21;;;;;;;2.75;2.55;;;20.70;99.90;;;;;;5061788;27;48783;-79
2022/06/02 11:48:29;;;;;;;2.65;1.80;;;20.90;99.90;;;;;;5063127;28;47954;-79
2022/06/02 11:51:24;;;;;;;2.97;2.00;;;21.50;99.90;;;;;;5067376;28;47286;-78
2022/06/02 11:54:21;;;;;;;3.08;2.25;;;21.30;99.90;;;;;;5066381;28;48198;-79
2022/06/02 11:57:02;;;;;;;2.33;1.80;;;21.40;99.90;;;;;;5012106;28;47044;-80
2022/06/02 11:59:40;;;;;;;3.92;2.03;;;21.80;99.90;;;;;;5050065;28;47232;-81
2022/06/02 12:02:21;;;;;;;2.35;1.58;;;21.70;99.90;;;;;;5068351;27;37975;-81
2022/06/02 12:05:24;;;;;;;3.03;1.90;;;21.70;99.90;;;;;;5051969;28;38895;-80
2022/06/02 12:07:51;;;;;;;1.70;1.60;;;21.50;99.90;;;;;;5057739;28;47254;-81
2022/06/02 12:10:33;;;;;;;3.15;1.90;;;21.10;99.90;;;;;;5048279;28;38235;-78
2022/06/02 12:13:16;;;;;;;2.25;1.92;;;20.80;99.90;;;;;;5056335;28;40871;-77
2022/06/02 12:15:48;;;;;;;3.80;2.10;;;20.60;99.90;;;;;;5070706;27;47505;-77
2022/06/02 12:18:19;;;;;;;2.22;2.03;;;20.00;99.90;;;;;;5051385;27;38144;-77
2022/06/02 12:21:04;;;;;;;1.77;1.67;;;19.80;99.90;;;;;;5050484;28;38043;-78
2022/06/02 12:23:46;;;;;;;2.67;2.10;;;20.60;99.90;;;;;;5070576;28;48982;-76
2022/06/02 12:26:35;;;;;;;2.78;1.83;;;20.50;99.90;;;;;;5069819;27;40446;-76
2022/06/02 12:29:32;;;;;;;1.75;1.52;;;21.40;99.90;;;;;;5061846;27;37464;-79
2022/06/02 12:31:58;;;;;;;2.45;1.67;;;21.50;99.90;;;;;;5058765;28;47546;-79
2022/06/02 12:35:01;;;;;;;2.88;1.90;;;21.90;99.90;;;;;;5043890;27;36488;-77
2022/06/02 12:37:55;;;;;;;2.05;1.80;;;22.20;99.90;;;;;;5060684;27;47220;-78
2022/06/02 12:40:33;;;;;;;2.92;1.60;;;22.50;99.90;;;;;;5078713;27;38786;-77
2022/06/02 12:43:08;;;;;;;2.97;2.38;;;23.00;99.90;;;;;;5049902;27;37623;-79
2022/06/02 12:45:48;;;;;;;2.55;2.28;;;22.10;99.90;;;;;;5069451;28;46982;-78
2022/06/02 12:48:45;;;;;;;3.60;2.08;;;20.90;99.90;;;;;;5067838;27;39550;-78
2022/06/02 12:51:25;;;;;;;1.73;1.42;;;20.80;99.90;;;;;;5062819;27;38347;-77
2022/06/02 12:54:10;;;;;;;2.83;1.60;;;21.30;99.90;;;;;;5063561;27;39009;-78
2022/06/02 12:56:55;;;;;;;1.85;1.30;;;22.10;99.90;;;;;;5070665;27;48275;-78
2022/06/02 12:59:40;;;;;;;2.33;1.98;;;22.80;99.90;;;;;;5073166;27;39783;-79
2022/06/02 13:02:09;;;;;;;2.28;2.00;;;22.50;99.90;;;;;;5069684;28;39859;-77
2022/06/02 13:05:01;;;;;;;1.98;1.77;;;21.70;99.90;;;;;;5071223;27;39296;-78
2022/06/02 13:07:55;;;;;;;3.33;2.50;;;21.50;99.90;;;;;;5073973;27;47348;-78
2022/06/02 13:10:41;;;;;;;4.13;2.13;;;21.30;99.90;;;;;;5066086;27;39670;-79
2022/06/02 13:13:42;;;;;;;3.65;2.13;;;20.30;99.90;;;;;;5074112;27;39163;-78
2022/06/02 13:16:46;;;;;;;3.10;2.35;;;20.30;99.90;;;;;;5030777;27;39278;-78
2022/06/02 13:19:15;;;;;;;1.90;1.75;;;20.80;99.90;;;;;;5069801;27;38455;-78
2022/06/02 13:21:56;;;;;;;2.38;1.60;;;21.10;99.90;;;;;;5064622;28;37757;-77
2022/06/02 13:24:55;;;;;;;1.83;1.70;;;21.60;99.90;;;;;;5065047;27;37841;-78
2022/06/02 13:27:52;;;;;;;3.08;2.10;;;22.30;99.90;;;;;;5070495;27;38525;-78
2022/06/02 13:30:36;;;;;;;2.85;1.55;;;22.00;99.90;;;;;;5084440;27;36387;-78
2022/06/02 13:33:20;;;;;;;2.00;1.60;;;22.00;99.90;;;;;;5070888;27;39232;-78
2022/06/02 13:36:08;;;;;;;2.25;2.05;;;21.90;99.90;;;;;;5064790;28;45838;-78
2022/06/02 13:38:52;;;;;;;5.25;2.30;;;21.20;99.90;;;;;;5063509;27;48836;-77
2022/06/02 13:41:46;;;;;;;4.00;2.10;;;21.60;99.90;;;;;;5064779;27;37161;-78
2022/06/02 13:44:26;;;;;;;2.60;2.10;;;22.20;99.90;;;;;;5067806;27;39551;-77
2022/06/02 13:47:15;;;;;;;2.40;1.80;;;22.30;99.90;;;;;;5068945;27;39082;-78
2022/06/02 13:50:29;;;;;;;1.75;1.60;;;22.60;99.90;;;;;;5101143;27;47132;-78
2022/06/02 13:53:14;;;;;;;2.42;1.70;;;22.60;99.90;;;;;;5046026;28;47417;-79
2022/06/02 13:59:23;;;;;;;2.80;1.80;;;22.20;99.90;;;;;;5064643;27;50248;-79
2022/06/02 14:02:20;;;;;;;2.30;1.75;;;22.10;99.90;;;;;;5072157;28;49099;-80
2022/06/02 14:05:07;;;;;;;2.30;1.50;;;22.50;99.90;;;;;;5074150;27;49170;-80
2022/06/02 14:08:04;;;;;;;2.45;1.50;;;22.20;99.90;;;;;;5037742;28;48327;-79
2022/06/02 14:11:04;;;;;;;2.08;1.70;;;22.10;99.90;;;;;;5068738;28;48251;-79
2022/06/02 14:13:54;;;;;;;2.10;1.83;;;22.50;99.90;;;;;;5068654;27;47018;-79
2022/06/02 14:16:33;;;;;;;2.90;1.80;;;22.80;99.90;;;;;;5077535;27;38263;-79
2022/06/02 14:19:26;;;;;;;2.88;1.58;;;22.40;99.90;;;;;;5052544;27;39588;-79
2022/06/02 14:22:24;;;;;;;2.38;1.67;;;22.50;99.90;;;;;;5054932;28;46632;-79
2022/06/02 14:24:56;;;;;;;3.92;1.58;;;22.30;99.90;;;;;;5073485;28;48939;-79
2022/06/02 14:27:41;;;;;;;1.70;1.60;;;22.40;99.90;;;;;;5074850;28;36113;-79
2022/06/02 14:30:16;;;;;;;1.77;1.15;;;22.10;99.90;;;;;;5070130;27;39275;-78
2022/06/02 14:32:51;;;;;;;3.88;1.55;;;22.30;99.90;;;;;;5055899;27;38920;-78
2022/06/02 14:35:32;;;;;;;1.90;1.60;;;22.60;99.90;;;;;;5061057;28;37821;-78
2022/06/02 14:38:32;;;;;;;2.40;2.20;;;22.90;99.90;;;;;;5046961;27;37026;-79
2022/06/02 14:41:24;;;;;;;1.52;1.42;;;22.50;99.90;;;;;;5066676;28;47933;-78
2022/06/02 14:44:09;;;;;;;1.45;1.27;;;22.30;99.90;;;;;;5074434;27;46652;-79